createdAt,value
2022-12-17T00:01:05.373Z,17.50
2022-12-17T00:03:51.799Z,16.77
2022-12-17T00:06:38.592Z,17.20
2022-12-17T00:09:23.698Z,17.25
2022-12-17T00:12:26.536Z,17.58
2022-12-17T00:15:11.562Z,16.48
2022-12-17T00:17:56.467Z,18.25
2022-12-17T00:20:42.199Z,19.02
2022-12-17T00:23:27.838Z,17.85
2022-12-17T00:26:15.015Z,15.02
2022-12-17T00:29:00.831Z,14.90
2022-12-17T00:31:48.849Z,16.60
2022-12-17T00:34:34.040Z,14.45
2022-12-17T00:37:19.682Z,14.93
2022-12-17T00:40:04.842Z,13.75
2022-12-17T00:42:50.651Z,14.80
2022-12-17T00:45:36.119Z,14.23
2022-12-17T00:48:22.146Z,14.13
2022-12-17T00:51:09.197Z,14.85
2022-12-17T00:53:54.949Z,13.80
2022-12-17T00:56:40.593Z,14.82
2022-12-17T00:59:25.709Z,15.00
2022-12-17T01:02:11.585Z,15.32
2022-12-17T01:04:57.485Z,15.52
2022-12-17T01:07:42.849Z,17.77
2022-12-17T01:10:28.557Z,17.42
2022-12-17T01:13:16.314Z,18.95
2022-12-17T01:16:01.750Z,20.23
2022-12-17T01:18:47.655Z,19.60
2022-12-17T01:21:32.902Z,15.18
2022-12-17T01:24:18.482Z,16.77
2022-12-17T01:27:05.309Z,18.92
2022-12-17T01:30:10.648Z,20.05
2022-12-17T01:33:21.100Z,19.33
2022-12-17T01:39:31.785Z,19.17
2022-12-17T01:42:37.128Z,19.05
2022-12-17T01:45:45.000Z,19.80
2022-12-17T01:48:35.116Z,19.45
2022-12-17T01:51:21.737Z,18.67
2022-12-17T01:54:11.655Z,19.60
2022-12-17T01:57:01.831Z,17.63
2022-12-17T02:00:01.609Z,18.10
2022-12-17T02:02:47.456Z,15.63
2022-12-17T02:05:33.540Z,12.50
2022-12-17T02:08:19.182Z,12.57
2022-12-17T02:11:27.779Z,13.38
2022-12-17T02:14:38.077Z,12.30
2022-12-17T02:17:29.613Z,12.55
2022-12-17T02:20:38.260Z,11.40
2022-12-17T02:23:35.941Z,10.98
2022-12-17T02:26:40.276Z,9.73
2022-12-17T02:29:26.988Z,9.32
2022-12-17T02:32:13.243Z,11.20
2022-12-17T02:35:04.765Z,11.25
2022-12-17T02:37:51.947Z,10.05
2022-12-17T02:40:40.578Z,10.15
2022-12-17T02:43:29.005Z,10.93
2022-12-17T02:46:15.509Z,11.40
2022-12-17T02:49:02.033Z,12.07
2022-12-17T02:51:50.415Z,10.68
2022-12-17T02:54:35.814Z,11.07
2022-12-17T02:57:22.731Z,10.75
2022-12-17T03:00:08.342Z,10.40
2022-12-17T03:02:53.948Z,9.45
2022-12-17T03:05:46.355Z,9.23
2022-12-17T03:08:32.555Z,10.35
2022-12-17T03:11:17.675Z,9.70
2022-12-17T03:14:03.227Z,10.45
2022-12-17T03:16:48.846Z,11.00
2022-12-17T03:19:34.112Z,11.38
2022-12-17T03:22:22.272Z,11.43
2022-12-17T03:25:07.522Z,11.52
2022-12-17T03:27:52.802Z,11.55
2022-12-17T03:30:39.054Z,11.40
2022-12-17T03:33:27.229Z,11.05
2022-12-17T03:36:24.216Z,11.00
2022-12-17T03:39:09.614Z,11.95
2022-12-17T03:41:54.873Z,13.25
2022-12-17T03:44:40.392Z,11.05
2022-12-17T03:47:25.789Z,10.65
2022-12-17T03:50:14.554Z,11.45
2022-12-17T03:53:00.540Z,10.75
2022-12-17T03:55:45.676Z,10.05
2022-12-17T03:58:31.183Z,9.48
2022-12-17T04:01:16.762Z,8.57
2022-12-17T04:04:02.244Z,8.88
2022-12-17T04:06:47.684Z,8.40
2022-12-17T04:09:34.472Z,8.35
2022-12-17T04:12:20.272Z,7.35
2022-12-17T04:15:05.431Z,7.47
2022-12-17T04:17:50.966Z,7.25
2022-12-17T04:20:36.281Z,6.47
2022-12-17T04:23:22.006Z,6.90
2022-12-17T04:26:07.535Z,7.45
2022-12-17T04:28:53.052Z,7.63
2022-12-17T04:31:38.665Z,7.40
2022-12-17T04:34:23.762Z,7.55
2022-12-17T04:37:09.101Z,7.53
2022-12-17T04:39:54.524Z,8.02
2022-12-17T04:42:39.801Z,7.55
2022-12-17T04:45:25.395Z,6.85
2022-12-17T04:48:18.689Z,6.13
2022-12-17T04:51:03.679Z,6.97
2022-12-17T04:53:49.463Z,7.00
2022-12-17T04:56:34.803Z,6.88
2022-12-17T04:59:19.981Z,6.78
2022-12-17T05:02:05.672Z,7.20
2022-12-17T05:04:54.521Z,6.78
2022-12-17T05:07:40.180Z,6.93
2022-12-17T05:10:25.624Z,6.88
2022-12-17T05:13:20.380Z,6.50
2022-12-17T05:16:05.658Z,7.28
2022-12-17T05:18:50.878Z,6.80
2022-12-17T05:21:40.875Z,6.18
2022-12-17T05:24:25.879Z,8.05
2022-12-17T05:27:11.202Z,9.20
2022-12-17T05:29:56.718Z,12.57
2022-12-17T05:32:42.324Z,14.73
2022-12-17T05:35:27.622Z,16.15
2022-12-17T05:38:13.712Z,14.45
2022-12-17T05:40:59.063Z,12.52
2022-12-17T05:43:44.141Z,10.55
2022-12-17T05:46:29.249Z,9.32
2022-12-17T05:49:15.012Z,8.77
2022-12-17T05:52:00.342Z,8.73
2022-12-17T05:54:45.565Z,8.02
2022-12-17T05:57:31.133Z,8.07
2022-12-17T06:00:16.297Z,8.32
2022-12-17T06:03:01.978Z,7.53
2022-12-17T06:05:47.806Z,8.00
2022-12-17T06:08:33.088Z,8.00
2022-12-17T06:11:19.273Z,7.72
2022-12-17T06:14:05.494Z,7.75
2022-12-17T06:16:50.711Z,7.20
2022-12-17T06:19:36.326Z,8.65
2022-12-17T06:22:21.485Z,7.93
2022-12-17T06:25:06.972Z,7.70
2022-12-17T06:27:52.086Z,7.97
2022-12-17T06:30:37.094Z,7.40
2022-12-17T06:33:28.849Z,7.93
2022-12-17T06:36:22.022Z,7.78
2022-12-17T06:39:08.002Z,8.45
2022-12-17T06:42:00.504Z,8.90
2022-12-17T06:44:49.924Z,9.15
2022-12-17T06:47:35.236Z,13.60
2022-12-17T06:50:20.441Z,14.60
2022-12-17T06:53:06.095Z,18.58
2022-12-17T06:55:52.093Z,20.30
2022-12-17T06:58:38.265Z,18.73
2022-12-17T07:01:23.701Z,20.40
2022-12-17T07:04:09.065Z,20.48
2022-12-17T07:06:55.278Z,19.25
2022-12-17T07:09:44.016Z,18.43
2022-12-17T07:12:29.079Z,20.00
2022-12-17T07:15:14.234Z,20.10
2022-12-17T07:17:59.512Z,21.10
2022-12-17T07:20:44.625Z,19.80
2022-12-17T07:23:29.997Z,19.13
2022-12-17T07:26:16.219Z,19.73
2022-12-17T07:29:01.454Z,20.35
2022-12-17T07:31:47.160Z,22.10
2022-12-17T07:34:32.378Z,20.10
2022-12-17T07:37:20.651Z,20.25
2022-12-17T07:40:23.073Z,15.27
2022-12-17T07:43:08.199Z,14.20
2022-12-17T07:45:54.193Z,12.73
2022-12-17T07:48:39.561Z,11.57
2022-12-17T07:51:24.976Z,10.05
2022-12-17T07:54:10.175Z,11.20
2022-12-17T07:56:55.890Z,12.10
2022-12-17T07:59:41.367Z,9.68
2022-12-17T08:02:29.381Z,9.57
2022-12-17T08:05:14.860Z,9.63
2022-12-17T08:08:00.091Z,10.15
2022-12-17T08:10:45.478Z,12.50
2022-12-17T08:13:30.846Z,14.13
2022-12-17T08:16:16.052Z,14.95
2022-12-17T08:19:01.342Z,12.95
2022-12-17T08:21:46.487Z,11.95
2022-12-17T08:24:32.044Z,11.23
2022-12-17T08:27:21.191Z,11.75
2022-12-17T08:30:06.349Z,12.02
2022-12-17T08:32:51.715Z,13.52
2022-12-17T08:35:36.678Z,12.13
2022-12-17T08:38:24.163Z,11.13
2022-12-17T08:41:09.334Z,11.23
2022-12-17T08:43:54.925Z,21.75
2022-12-17T08:46:40.520Z,23.10
2022-12-17T08:49:26.008Z,25.02
2022-12-17T08:52:11.696Z,23.63
2022-12-17T08:54:57.221Z,22.63
2022-12-17T08:57:43.435Z,21.48
2022-12-17T09:00:29.269Z,20.50
2022-12-17T09:03:18.715Z,22.33
2022-12-17T09:06:04.531Z,23.48
2022-12-17T09:08:50.396Z,27.05
2022-12-17T09:11:36.332Z,28.02
2022-12-17T09:14:21.501Z,25.65
2022-12-17T09:17:07.109Z,25.67
2022-12-17T09:19:51.947Z,26.63
2022-12-17T09:22:38.149Z,26.10
2022-12-17T09:25:23.760Z,24.42
2022-12-17T09:28:09.221Z,21.35
2022-12-17T09:30:54.588Z,22.10
2022-12-17T09:33:40.350Z,24.00
2022-12-17T09:36:26.463Z,23.30
2022-12-17T09:39:11.699Z,24.38
2022-12-17T09:42:12.762Z,24.52
2022-12-17T09:45:21.711Z,21.30
2022-12-17T09:48:36.829Z,21.30
2022-12-17T09:51:22.267Z,23.80
2022-12-17T09:54:12.296Z,24.50
2022-12-17T09:57:00.962Z,25.58
2022-12-17T09:59:51.606Z,23.98
2022-12-17T10:02:44.583Z,23.85
2022-12-17T10:05:43.494Z,23.90
2022-12-17T10:08:33.964Z,23.90
2022-12-17T10:14:42.290Z,25.92
2022-12-17T10:17:35.387Z,25.65
2022-12-17T10:20:21.104Z,22.77
2022-12-17T10:23:08.152Z,24.55
2022-12-17T10:25:54.677Z,25.02
2022-12-17T10:28:43.634Z,23.15
2022-12-17T10:31:34.655Z,24.08
2022-12-17T10:34:20.022Z,25.88
2022-12-17T10:37:08.710Z,27.58
2022-12-17T10:39:54.780Z,25.80
2022-12-17T10:42:41.366Z,24.70
2022-12-17T10:45:40.464Z,25.50
2022-12-17T10:48:55.009Z,25.63
2022-12-17T10:51:49.202Z,26.13
2022-12-17T10:54:46.948Z,26.23
2022-12-17T10:57:49.200Z,26.77
2022-12-17T11:03:20.174Z,27.42
2022-12-17T11:06:11.100Z,28.60
2022-12-17T11:08:57.693Z,30.80
2022-12-17T11:11:44.136Z,30.52
2022-12-17T11:14:32.240Z,31.08
2022-12-17T11:17:23.614Z,34.40
2022-12-17T11:20:17.467Z,34.47
2022-12-17T11:23:06.773Z,33.78
2022-12-17T11:26:05.101Z,34.38
2022-12-17T11:28:54.528Z,33.20
2022-12-17T11:32:07.896Z,31.98
2022-12-17T11:35:11.464Z,32.90
2022-12-17T11:38:06.868Z,33.15
2022-12-17T11:41:13.995Z,38.80
2022-12-17T11:44:12.954Z,34.63
2022-12-17T11:47:09.075Z,34.75
2022-12-17T11:50:16.367Z,37.20
2022-12-17T11:53:34.141Z,36.30
2022-12-17T11:56:41.272Z,34.42
2022-12-17T11:59:50.906Z,35.60
2022-12-17T12:03:09.190Z,37.05
2022-12-17T12:06:12.455Z,39.00
2022-12-17T12:09:35.333Z,43.17
2022-12-17T12:12:39.362Z,41.40
2022-12-17T12:15:36.793Z,46.40
2022-12-17T12:18:45.763Z,47.78
2022-12-17T12:21:48.217Z,48.22
2022-12-17T12:24:48.807Z,47.00
2022-12-17T12:28:16.149Z,41.38
2022-12-17T12:31:13.930Z,41.78
2022-12-17T12:34:12.491Z,41.58
2022-12-17T12:37:00.110Z,38.45
2022-12-17T12:40:08.393Z,34.65
2022-12-17T12:43:09.842Z,34.25
2022-12-17T12:46:18.530Z,34.72
2022-12-17T12:49:22.620Z,33.70
2022-12-17T12:52:11.002Z,34.58
2022-12-17T12:55:05.716Z,33.58
2022-12-17T12:57:57.502Z,34.08
2022-12-17T13:01:06.099Z,34.53
2022-12-17T13:04:03.917Z,34.58
2022-12-17T13:06:50.711Z,36.42
2022-12-17T13:09:17.922Z,35.20
2022-12-17T13:12:08.209Z,36.80
2022-12-17T13:14:46.057Z,36.88
2022-12-17T13:17:15.919Z,38.65
2022-12-17T13:19:59.358Z,37.92
2022-12-17T13:22:29.588Z,36.55
2022-12-17T13:25:15.727Z,36.58
2022-12-17T13:27:43.010Z,34.78
2022-12-17T13:30:20.964Z,34.67
2022-12-17T13:33:04.873Z,36.35
2022-12-17T13:36:01.184Z,36.67
2022-12-17T13:38:40.252Z,36.85
2022-12-17T13:41:15.112Z,35.22
2022-12-17T13:43:50.906Z,37.75
2022-12-17T13:46:36.484Z,34.85
2022-12-17T13:49:06.152Z,36.03
2022-12-17T13:51:36.371Z,35.90
2022-12-17T13:54:04.582Z,35.50
2022-12-17T13:56:36.474Z,35.50
2022-12-17T13:59:09.139Z,36.28
2022-12-17T14:01:45.528Z,37.22
2022-12-17T14:04:21.099Z,36.83
2022-12-17T14:06:48.354Z,36.40
2022-12-17T14:09:21.186Z,36.95
2022-12-17T14:12:08.369Z,37.00
2022-12-17T14:14:44.135Z,37.03
2022-12-17T14:17:28.560Z,35.95
2022-12-17T14:20:11.223Z,35.95
2022-12-17T14:22:44.971Z,39.13
2022-12-17T14:25:21.652Z,38.33
2022-12-17T14:28:03.999Z,37.70
2022-12-17T14:30:46.287Z,36.92
2022-12-17T14:33:33.179Z,38.40
2022-12-17T14:36:06.410Z,42.83
2022-12-17T14:38:42.944Z,41.65
2022-12-17T14:41:33.027Z,38.50
2022-12-17T14:44:01.852Z,35.85
2022-12-17T14:46:30.315Z,36.17
2022-12-17T14:49:01.159Z,36.00
2022-12-17T14:51:40.070Z,36.55
2022-12-17T14:54:22.128Z,37.15
2022-12-17T14:56:49.859Z,41.63
2022-12-17T14:59:38.734Z,42.13
2022-12-17T15:02:19.643Z,39.30
2022-12-17T15:04:46.631Z,38.85
2022-12-17T15:07:18.241Z,38.15
2022-12-17T15:09:44.887Z,40.40
2022-12-17T15:12:11.391Z,44.80
2022-12-17T15:14:37.781Z,44.90
2022-12-17T15:17:05.273Z,38.80
2022-12-17T15:19:31.712Z,41.75
2022-12-17T15:21:58.331Z,39.92
2022-12-17T15:24:24.793Z,38.50
2022-12-17T15:26:51.305Z,38.17
2022-12-17T15:29:18.061Z,37.95
2022-12-17T15:31:44.573Z,42.25
2022-12-17T15:34:11.927Z,38.38
2022-12-17T15:36:39.163Z,37.67
2022-12-17T15:39:06.978Z,37.95
2022-12-17T15:41:52.740Z,36.80
2022-12-17T15:44:19.407Z,35.75
2022-12-17T15:46:46.290Z,36.22
2022-12-17T15:49:13.103Z,36.70
2022-12-17T15:51:39.600Z,38.85
2022-12-17T15:54:06.081Z,36.70
2022-12-17T15:56:33.303Z,35.83
2022-12-17T15:58:59.799Z,40.58
2022-12-17T16:01:26.486Z,41.10
2022-12-17T16:03:53.326Z,37.42
2022-12-17T16:06:19.816Z,35.90
2022-12-17T16:08:46.234Z,38.38
2022-12-17T16:11:14.487Z,35.55
2022-12-17T16:13:40.995Z,35.97
2022-12-17T16:16:08.731Z,36.03
2022-12-17T16:18:36.549Z,36.17
2022-12-17T16:21:04.767Z,34.40
2022-12-17T16:23:31.753Z,34.50
2022-12-17T16:26:00.328Z,35.75
2022-12-17T16:28:28.319Z,34.95
2022-12-17T16:30:59.918Z,35.63
2022-12-17T16:33:28.779Z,35.80
2022-12-17T16:35:59.331Z,39.83
2022-12-17T16:38:26.146Z,38.60
2022-12-17T16:41:01.522Z,39.78
2022-12-17T16:43:32.591Z,37.67
2022-12-17T16:45:59.112Z,36.35
2022-12-17T16:48:25.592Z,40.65
2022-12-17T16:50:52.021Z,41.17
2022-12-17T16:53:19.385Z,39.50
2022-12-17T16:55:48.738Z,41.15
2022-12-17T16:58:17.713Z,37.37
2022-12-17T17:00:46.112Z,38.28
2022-12-17T17:03:12.796Z,38.92
2022-12-17T17:05:42.201Z,40.53
2022-12-17T17:08:08.898Z,38.33
2022-12-17T17:10:36.787Z,42.45
2022-12-17T17:13:03.864Z,43.65
2022-12-17T17:15:30.415Z,36.50
2022-12-17T17:18:02.473Z,42.17
2022-12-17T17:20:32.033Z,36.35
2022-12-17T17:22:58.771Z,36.35
2022-12-17T17:25:38.526Z,42.55
2022-12-17T17:28:11.694Z,39.80
2022-12-17T17:30:38.128Z,39.00
2022-12-17T17:33:04.594Z,41.55
2022-12-17T17:35:31.136Z,36.00
2022-12-17T17:37:57.577Z,43.63
2022-12-17T17:40:24.009Z,37.03
2022-12-17T17:42:52.996Z,36.78
2022-12-17T17:45:20.144Z,36.45
2022-12-17T17:47:46.684Z,38.90
2022-12-17T17:50:13.428Z,37.40
2022-12-17T17:52:39.986Z,38.45
2022-12-17T17:55:07.179Z,35.15
2022-12-17T17:57:33.851Z,38.00
2022-12-17T18:00:00.340Z,36.35
2022-12-17T18:02:26.974Z,36.22
2022-12-17T18:04:53.646Z,35.90
2022-12-17T18:07:28.221Z,36.47
2022-12-17T18:09:55.927Z,35.60
2022-12-17T18:12:42.095Z,35.70
2022-12-17T18:15:18.169Z,37.75
2022-12-17T18:17:46.954Z,39.10
2022-12-17T18:20:14.211Z,38.47
2022-12-17T18:22:40.840Z,40.53
2022-12-17T18:25:08.157Z,37.35
2022-12-17T18:27:34.612Z,37.28
2022-12-17T18:30:00.997Z,39.38
2022-12-17T18:32:27.652Z,38.92
2022-12-17T18:34:54.737Z,40.65
2022-12-17T18:37:21.286Z,40.28
2022-12-17T18:39:49.316Z,41.90
2022-12-17T18:42:34.765Z,39.72
2022-12-17T18:45:01.714Z,39.60
2022-12-17T18:47:29.968Z,39.88
2022-12-17T18:49:57.405Z,41.78
2022-12-17T18:52:24.192Z,41.20
2022-12-17T18:54:50.753Z,44.13
2022-12-17T18:57:17.501Z,41.72
2022-12-17T18:59:43.973Z,43.65
2022-12-17T19:02:12.284Z,42.38
2022-12-17T19:04:39.135Z,45.05
2022-12-17T19:07:05.544Z,45.05
2022-12-17T19:09:36.437Z,42.15
2022-12-17T19:12:08.206Z,44.55
2022-12-17T19:14:35.612Z,41.80
2022-12-17T19:17:02.891Z,40.25
2022-12-17T19:19:29.785Z,42.30
2022-12-17T19:21:56.768Z,41.53
2022-12-17T19:24:23.716Z,41.33
2022-12-17T19:26:51.343Z,41.53
2022-12-17T19:29:19.498Z,39.90
2022-12-17T19:31:46.514Z,39.78
2022-12-17T19:34:14.988Z,38.35
2022-12-17T19:36:42.669Z,38.30
2022-12-17T19:39:13.689Z,40.25
2022-12-17T19:41:40.630Z,37.63
2022-12-17T19:44:10.793Z,38.67
2022-12-17T19:46:37.459Z,40.53
2022-12-17T19:49:05.175Z,39.88
2022-12-17T19:51:32.322Z,40.92
2022-12-17T19:54:04.741Z,40.67
2022-12-17T19:56:35.395Z,43.20
2022-12-17T19:59:06.787Z,41.33
2022-12-17T20:01:42.374Z,41.10
2022-12-17T20:04:10.563Z,43.95
2022-12-17T20:06:37.327Z,41.47
2022-12-17T20:09:05.507Z,36.90
2022-12-17T20:11:35.282Z,37.13
2022-12-17T20:14:05.853Z,38.40
2022-12-17T20:16:35.870Z,43.13
2022-12-17T20:19:03.712Z,39.28
2022-12-17T20:21:30.458Z,44.67
2022-12-17T20:23:56.933Z,39.75
2022-12-17T20:26:25.797Z,44.70
2022-12-17T20:28:52.273Z,42.53
2022-12-17T20:31:19.015Z,40.10
2022-12-17T20:33:45.434Z,40.78
2022-12-17T20:36:15.406Z,41.50
2022-12-17T20:38:43.192Z,39.63
2022-12-17T20:41:19.077Z,40.08
2022-12-17T20:43:45.901Z,39.17
2022-12-17T20:46:12.661Z,39.30
2022-12-17T20:48:41.663Z,40.70
2022-12-17T20:51:28.776Z,37.38
2022-12-17T20:53:56.780Z,38.25
2022-12-17T20:56:26.176Z,39.17
2022-12-17T20:58:58.852Z,39.35
2022-12-17T21:01:28.117Z,38.47
2022-12-17T21:03:56.230Z,40.93
2022-12-17T21:06:25.696Z,37.75
2022-12-17T21:08:53.666Z,41.40
2022-12-17T21:11:25.818Z,41.35
2022-12-17T21:13:53.355Z,42.47
2022-12-17T21:16:31.291Z,38.38
2022-12-17T21:18:59.835Z,38.88
2022-12-17T21:21:29.160Z,37.05
2022-12-17T21:23:56.523Z,39.03
2022-12-17T21:26:32.156Z,38.00
2022-12-17T21:28:59.582Z,36.85
2022-12-17T21:31:29.008Z,38.78
2022-12-17T21:33:58.755Z,37.95
2022-12-17T21:38:53.649Z,35.83
2022-12-17T21:41:23.403Z,36.20
2022-12-17T21:43:58.857Z,40.08
2022-12-17T21:46:29.610Z,39.80
2022-12-17T21:48:58.501Z,42.72
2022-12-17T21:51:25.823Z,37.78
2022-12-17T21:53:55.184Z,36.08
2022-12-17T21:56:22.271Z,40.90
2022-12-17T21:58:49.759Z,39.85
2022-12-17T22:01:19.957Z,37.00
2022-12-17T22:03:54.033Z,38.40
2022-12-17T22:06:25.681Z,38.95
2022-12-17T22:08:58.234Z,37.28
2022-12-17T22:11:28.787Z,36.15
2022-12-17T22:14:07.797Z,36.10
2022-12-17T22:16:39.111Z,40.03
2022-12-17T22:19:07.410Z,35.13
2022-12-17T22:21:35.885Z,34.53
2022-12-17T22:24:02.522Z,35.72
2022-12-17T22:26:29.254Z,36.00
2022-12-17T22:28:56.146Z,36.50
2022-12-17T22:31:41.978Z,35.58
2022-12-17T22:34:34.907Z,34.58
2022-12-17T22:39:24.187Z,34.13
2022-12-17T22:41:42.091Z,35.47
2022-12-17T22:44:42.340Z,36.88
2022-12-17T22:45:41.515Z,36.15
2022-12-17T22:48:09.725Z,37.90
2022-12-17T22:50:43.103Z,37.33
2022-12-17T22:53:25.046Z,38.30
2022-12-17T22:55:52.398Z,38.92
2022-12-17T22:58:19.865Z,41.03
2022-12-17T23:00:46.699Z,42.05
2022-12-17T23:03:13.951Z,39.35
2022-12-17T23:05:40.643Z,40.05
2022-12-17T23:08:07.532Z,41.40
2022-12-17T23:10:34.149Z,41.53
2022-12-17T23:13:00.731Z,42.17
2022-12-17T23:15:38.602Z,43.10
2022-12-17T23:18:07.048Z,40.45
2022-12-17T23:20:35.225Z,40.80
2022-12-17T23:23:02.387Z,41.83
2022-12-17T23:25:29.587Z,42.83
2022-12-17T23:27:56.292Z,42.35
2022-12-17T23:30:23.001Z,43.28
2022-12-17T23:32:50.388Z,40.70
2022-12-17T23:35:17.212Z,39.25
2022-12-17T23:37:43.843Z,40.25
2022-12-17T23:40:11.635Z,37.78
2022-12-17T23:42:38.965Z,40.60
2022-12-17T23:45:06.960Z,41.50
2022-12-17T23:47:33.570Z,39.05
2022-12-17T23:50:00.239Z,40.25
2022-12-17T23:52:26.934Z,38.05
2022-12-17T23:54:53.389Z,36.13
2022-12-17T23:57:19.982Z,40.15
2022-12-17T23:59:47.049Z,38.83
